Time;durP1;ratioP1;P1;durP2;ratioP2;P2;SDS_P1;SDS_P2;PMS_P1;PMS_P2;Temp;Humidity;BMP_temperature;BMP_pressure;BME280_temperature;BME280_humidity;BME280_pressure;Samples;Min_cycle;Max_cycle;Signal;HPM_P1;HPM_P2
2023/04/10 00:00:13;;;;;;;11.20;10.80;;;5.90;99.90;;;;;;6178676;23;20200;-84
2023/04/10 00:02:44;;;;;;;10.90;10.60;;;5.90;99.90;;;;;;6176806;23;20220;-84
2023/04/10 00:05:12;;;;;;;11.00;10.70;;;5.90;99.90;;;;;;6176032;23;20208;-84
2023/04/10 00:07:41;;;;;;;11.00;10.70;;;5.80;99.90;;;;;;6174964;23;20252;-84
2023/04/10 00:10:14;;;;;;;11.37;10.97;;;5.80;99.90;;;;;;6175047;23;20208;-84
2023/04/10 00:12:41;;;;;;;10.93;10.63;;;5.80;99.90;;;;;;6175085;23;20255;-85
2023/04/10 00:15:10;;;;;;;11.00;10.70;;;5.70;99.90;;;;;;6183867;23;20184;-84
2023/04/10 00:17:39;;;;;;;11.00;10.70;;;5.70;99.90;;;;;;6184359;23;20219;-84
2023/04/10 00:20:08;;;;;;;11.30;10.90;;;5.70;99.90;;;;;;6170793;23;20220;-84
2023/04/10 00:22:38;;;;;;;11.20;10.80;;;5.70;99.90;;;;;;6170761;23;20220;-85
2023/04/10 00:25:08;;;;;;;11.20;10.80;;;5.60;99.90;;;;;;6170985;23;20200;-84
2023/04/10 00:30:25;;;;;;;10.93;10.63;;;5.60;99.90;;;;;;6170749;23;20224;-84
2023/04/10 00:32:54;;;;;;;11.40;11.00;;;5.60;99.90;;;;;;6171499;23;20227;-84
2023/04/10 00:35:23;;;;;;;11.50;11.10;;;5.50;99.90;;;;;;6171704;23;20212;-84
2023/04/10 00:37:53;;;;;;;11.27;10.87;;;5.50;99.90;;;;;;6171804;23;20252;-84
2023/04/10 00:40:22;;;;;;;11.33;10.93;;;5.50;99.90;;;;;;6173477;23;20256;-84
2023/04/10 00:42:57;;;;;;;11.20;10.80;;;5.50;99.90;;;;;;6171644;23;20257;-84
2023/04/10 00:45:29;;;;;;;11.30;10.90;;;5.40;99.90;;;;;;6172820;23;20259;-84
2023/04/10 00:47:59;;;;;;;11.20;10.80;;;5.40;99.90;;;;;;6172765;23;20202;-84
2023/04/10 00:50:29;;;;;;;11.47;11.07;;;5.30;99.90;;;;;;6176957;23;20251;-84
2023/04/10 00:52:58;;;;;;;11.27;10.87;;;5.20;99.90;;;;;;6176761;23;20259;-84
2023/04/10 00:55:27;;;;;;;11.30;10.90;;;5.10;99.90;;;;;;6171708;23;20283;-85
2023/04/10 00:58:07;;;;;;;11.40;11.00;;;5.10;99.90;;;;;;6172719;23;20193;-84
2023/04/10 01:00:35;;;;;;;11.53;11.13;;;5.10;99.90;;;;;;6173311;23;20196;-84
2023/04/10 01:03:05;;;;;;;11.30;10.90;;;5.10;99.90;;;;;;6174689;23;20231;-84
2023/04/10 01:05:43;;;;;;;11.60;11.20;;;5.10;99.90;;;;;;6175102;23;20193;-84
2023/04/10 01:08:21;;;;;;;11.37;10.97;;;5.00;99.90;;;;;;6174684;23;20196;-84
2023/04/10 01:10:59;;;;;;;11.30;10.90;;;5.00;99.90;;;;;;6173267;23;20287;-84
2023/04/10 01:13:41;;;;;;;11.20;10.80;;;4.90;99.90;;;;;;6173587;23;20709;-84
2023/04/10 01:16:18;;;;;;;11.20;10.80;;;4.90;99.90;;;;;;6174511;23;20204;-83
2023/04/10 01:18:54;;;;;;;11.10;10.70;;;4.90;99.90;;;;;;6174676;23;20207;-83
2023/04/10 01:21:23;;;;;;;11.27;10.87;;;4.80;99.90;;;;;;6175575;23;20223;-84
2023/04/10 01:24:22;;;;;;;11.07;10.67;;;4.80;99.90;;;;;;6173085;23;20264;-83
2023/04/10 01:27:15;;;;;;;11.40;11.00;;;4.80;99.90;;;;;;6173828;23;20205;-84
2023/04/10 01:30:02;;;;;;;11.33;10.93;;;4.80;99.90;;;;;;6173809;23;20223;-84
2023/04/10 01:32:34;;;;;;;11.33;10.93;;;4.70;99.90;;;;;;6173936;23;20219;-84
2023/04/10 01:35:09;;;;;;;11.20;10.80;;;4.70;99.90;;;;;;6173573;23;20189;-84
2023/04/10 01:37:42;;;;;;;11.20;10.80;;;4.70;99.90;;;;;;6173382;23;20179;-84
2023/04/10 01:40:18;;;;;;;11.47;11.07;;;4.60;99.90;;;;;;6175781;23;20265;-84
2023/04/10 01:42:56;;;;;;;11.10;10.70;;;4.60;99.90;;;;;;6176383;23;20195;-84
2023/04/10 01:45:37;;;;;;;11.20;10.80;;;4.60;99.90;;;;;;6183722;23;20207;-84
2023/04/10 01:48:05;;;;;;;11.10;10.70;;;4.60;99.90;;;;;;6177930;23;20202;-83
2023/04/10 01:50:34;;;;;;;11.27;10.87;;;4.60;99.90;;;;;;6178063;23;20220;-84
2023/04/10 01:53:05;;;;;;;11.37;10.97;;;4.50;99.90;;;;;;6178072;23;20196;-83
2023/04/10 01:55:35;;;;;;;11.40;11.00;;;4.50;99.90;;;;;;6177011;23;20192;-84
2023/04/10 01:58:03;;;;;;;11.20;10.80;;;4.50;99.90;;;;;;6176436;23;20235;-83
2023/04/10 02:00:40;;;;;;;11.10;10.70;;;4.50;99.90;;;;;;6175616;23;20219;-84
2023/04/10 02:03:12;;;;;;;11.13;10.73;;;4.40;99.90;;;;;;6184722;23;20192;-83
2023/04/10 02:08:46;;;;;;;11.27;10.87;;;4.40;99.90;;;;;;6176776;23;20279;-83
2023/04/10 02:11:23;;;;;;;10.97;10.63;;;4.30;99.90;;;;;;6177695;23;20212;-84
2023/04/10 02:13:52;;;;;;;11.13;10.73;;;4.30;99.90;;;;;;6176354;23;20195;-84
2023/04/10 02:16:32;;;;;;;11.17;10.77;;;4.30;99.90;;;;;;6176636;23;20229;-83
2023/04/10 02:19:02;;;;;;;10.90;10.60;;;4.30;99.90;;;;;;6177090;23;20203;-83
2023/04/10 02:21:30;;;;;;;10.90;10.60;;;4.20;99.90;;;;;;6175754;23;20255;-83
2023/04/10 02:23:58;;;;;;;11.20;10.80;;;4.20;99.90;;;;;;6176042;23;20224;-83
2023/04/10 02:26:28;;;;;;;10.97;10.67;;;4.10;99.90;;;;;;6175357;23;20196;-84
2023/04/10 02:28:57;;;;;;;11.00;10.70;;;4.10;99.90;;;;;;6175283;23;20201;-84
2023/04/10 02:34:14;;;;;;;11.10;10.70;;;4.10;99.90;;;;;;6180039;23;20196;-84
2023/04/10 02:36:43;;;;;;;10.97;10.60;;;4.00;99.90;;;;;;6180259;23;20188;-83
2023/04/10 02:39:13;;;;;;;11.20;10.80;;;4.00;99.90;;;;;;6179211;23;20200;-83
2023/04/10 02:41:42;;;;;;;11.10;10.70;;;4.00;99.90;;;;;;6177417;23;20197;-84
2023/04/10 02:44:12;;;;;;;10.80;10.50;;;4.00;99.90;;;;;;6177138;23;20197;-83
2023/04/10 02:49:28;;;;;;;10.80;10.50;;;3.90;99.90;;;;;;6173807;23;20200;-84
2023/04/10 02:51:57;;;;;;;10.90;10.60;;;3.90;99.90;;;;;;6175728;23;20278;-84
2023/04/10 02:54:27;;;;;;;10.90;10.60;;;3.90;99.90;;;;;;6175788;23;20285;-83
2023/04/10 02:56:57;;;;;;;10.90;10.60;;;3.90;99.90;;;;;;6175397;23;20205;-84
2023/04/10 02:59:26;;;;;;;10.67;10.37;;;3.90;99.90;;;;;;6175129;23;20871;-84
2023/04/10 03:01:58;;;;;;;10.93;10.60;;;3.80;99.90;;;;;;6174839;23;20198;-83
2023/04/10 03:04:26;;;;;;;11.03;10.70;;;3.80;99.90;;;;;;6175446;23;20290;-83
2023/04/10 03:06:55;;;;;;;10.90;10.60;;;3.80;99.90;;;;;;6175440;23;20196;-84
2023/04/10 03:09:24;;;;;;;11.17;10.77;;;3.80;99.90;;;;;;6175636;23;20229;-83
2023/04/10 03:11:53;;;;;;;11.13;10.73;;;3.70;99.90;;;;;;6171112;23;20197;-83
2023/04/10 03:14:23;;;;;;;11.20;10.80;;;3.70;99.90;;;;;;6172190;23;20236;-83
2023/04/10 03:16:52;;;;;;;11.20;10.80;;;3.70;99.90;;;;;;6172819;23;20204;-84
2023/04/10 03:19:33;;;;;;;11.17;10.77;;;3.60;99.90;;;;;;6172863;23;20228;-83
2023/04/10 03:22:01;;;;;;;11.03;10.70;;;3.60;99.90;;;;;;6173288;23;20224;-83
2023/04/10 03:24:29;;;;;;;10.90;10.60;;;3.60;99.90;;;;;;6181776;23;20248;-83
2023/04/10 03:26:58;;;;;;;11.03;10.63;;;3.50;99.90;;;;;;6181045;23;20203;-84
2023/04/10 03:29:28;;;;;;;11.33;10.93;;;3.50;99.90;;;;;;6180747;23;20201;-83
2023/04/10 03:32:00;;;;;;;11.07;10.67;;;3.50;99.90;;;;;;6179217;23;20216;-84
2023/04/10 03:34:30;;;;;;;11.30;10.90;;;3.50;99.90;;;;;;6174979;23;20184;-84
2023/04/10 03:36:57;;;;;;;11.00;10.60;;;3.40;99.90;;;;;;6176360;23;20216;-83
2023/04/10 03:39:26;;;;;;;11.23;10.83;;;3.30;99.90;;;;;;6177700;23;20196;-84
2023/04/10 03:41:55;;;;;;;11.03;10.63;;;3.20;99.90;;;;;;6177323;23;20260;-84
2023/04/10 03:44:25;;;;;;;11.13;10.73;;;3.10;99.90;;;;;;6176044;23;20201;-84
2023/04/10 03:46:54;;;;;;;11.10;10.70;;;3.00;99.90;;;;;;6175746;23;20195;-84
2023/04/10 03:49:23;;;;;;;11.03;10.63;;;3.00;99.90;;;;;;6176107;23;20196;-84
2023/04/10 03:51:55;;;;;;;11.10;10.70;;;3.00;99.90;;;;;;6174941;23;20208;-84
2023/04/10 03:54:24;;;;;;;11.10;10.70;;;3.00;99.90;;;;;;6174541;23;20259;-84
2023/04/10 03:56:55;;;;;;;11.20;10.80;;;3.00;99.90;;;;;;6173648;23;20251;-84
2023/04/10 03:59:23;;;;;;;11.23;10.83;;;2.90;99.90;;;;;;6174129;23;20196;-84
2023/04/10 04:01:52;;;;;;;11.23;10.83;;;2.90;99.90;;;;;;6174158;23;20283;-84
2023/04/10 04:04:22;;;;;;;11.00;10.60;;;2.90;99.90;;;;;;6177907;23;20334;-84
2023/04/10 04:06:52;;;;;;;11.10;10.70;;;2.80;99.90;;;;;;6176844;23;20211;-84
2023/04/10 04:12:08;;;;;;;11.30;10.90;;;2.70;99.90;;;;;;6175082;23;20210;-84
2023/04/10 04:14:37;;;;;;;11.00;10.60;;;2.70;99.90;;;;;;6175212;23;20239;-84
2023/04/10 04:17:07;;;;;;;11.40;11.00;;;2.70;99.90;;;;;;6175737;23;20219;-83
2023/04/10 04:19:36;;;;;;;11.40;11.00;;;2.60;99.90;;;;;;6182653;23;20200;-83
2023/04/10 04:22:06;;;;;;;11.53;11.13;;;2.60;99.90;;;;;;6179533;23;20193;-83
2023/04/10 04:27:22;;;;;;;11.47;11.07;;;2.60;99.90;;;;;;6176500;23;20203;-83
2023/04/10 04:29:51;;;;;;;11.47;11.07;;;2.70;99.90;;;;;;6177020;23;20218;-83
2023/04/10 04:32:21;;;;;;;11.37;10.97;;;2.60;99.90;;;;;;6176543;23;20260;-83
2023/04/10 04:34:50;;;;;;;11.63;11.23;;;2.60;99.90;;;;;;6175774;23;20197;-83
2023/04/10 04:37:19;;;;;;;11.53;11.13;;;2.70;99.90;;;;;;6174525;23;20231;-83
2023/04/10 04:39:52;;;;;;;11.33;10.93;;;2.70;99.90;;;;;;6175782;23;20291;-83
2023/04/10 04:42:20;;;;;;;11.30;10.90;;;2.70;99.90;;;;;;6174985;23;20196;-83
2023/04/10 04:44:49;;;;;;;11.40;11.00;;;2.70;99.90;;;;;;6173870;23;20204;-83
2023/04/10 04:47:18;;;;;;;11.40;11.00;;;2.70;99.90;;;;;;6173919;23;20224;-83
2023/04/10 07:38:26;;;;;;;;;;;;;;;;;;;;;
2023/04/10 10:52:48;;;;;;;9.80;9.50;;;14.70;99.90;;;;;;6197782;23;20220;-83
2023/04/10 10:55:45;;;;;;;9.80;9.50;;;14.80;99.90;;;;;;6200984;23;20192;-81
2023/04/10 10:58:12;;;;;;;9.77;9.48;;;15.10;99.90;;;;;;6201516;23;20192;-82
2023/04/10 11:01:08;;;;;;;9.67;9.37;;;15.10;99.90;;;;;;6201689;23;20195;-82
2023/04/10 11:03:37;;;;;;;9.65;9.35;;;15.00;99.90;;;;;;6200539;23;20199;-82
2023/04/10 11:06:09;;;;;;;9.60;9.30;;;15.00;99.90;;;;;;6200842;23;20214;-82
2023/04/10 11:08:45;;;;;;;9.77;9.48;;;15.10;99.90;;;;;;6210913;23;20202;-81
2023/04/10 11:11:16;;;;;;;9.73;9.43;;;15.40;99.90;;;;;;6216086;23;20189;-82
2023/04/10 11:14:20;;;;;;;9.60;9.30;;;15.90;99.90;;;;;;6203080;23;20270;-82
2023/04/10 11:16:49;;;;;;;9.95;9.65;;;15.80;99.90;;;;;;6186149;23;20268;-82
2023/04/10 11:19:19;;;;;;;9.63;9.32;;;15.60;99.90;;;;;;6206561;23;20210;-82
2023/04/10 11:22:06;;;;;;;9.82;9.52;;;15.90;99.90;;;;;;6201330;23;20210;-82
2023/04/10 11:25:01;;;;;;;9.73;9.43;;;16.20;99.90;;;;;;6200164;23;20192;-82
2023/04/10 11:27:48;;;;;;;10.00;9.70;;;16.50;99.90;;;;;;6199931;23;20191;-82
2023/04/10 11:30:36;;;;;;;9.75;9.45;;;17.00;99.90;;;;;;6200153;23;20196;-83
2023/04/10 11:33:05;;;;;;;9.55;9.25;;;17.10;99.90;;;;;;6200746;23;20199;-83
2023/04/10 11:35:33;;;;;;;9.82;9.52;;;17.00;99.90;;;;;;6200987;23;20191;-83
2023/04/10 11:38:28;;;;;;;9.60;9.30;;;17.00;99.90;;;;;;6201158;23;20195;-84
2023/04/10 11:41:03;;;;;;;9.88;9.57;;;17.30;99.90;;;;;;6173926;23;20242;-83
2023/04/10 11:43:31;;;;;;;9.73;9.43;;;17.30;99.90;;;;;;6199814;23;20274;-84
2023/04/10 11:46:08;;;;;;;10.05;9.75;;;17.20;99.90;;;;;;6201010;23;20203;-83
2023/04/10 11:48:37;;;;;;;9.77;9.48;;;16.60;99.90;;;;;;6200283;23;20198;-83
2023/04/10 11:51:12;;;;;;;9.77;9.48;;;16.40;99.90;;;;;;6200789;23;20200;-84
2023/04/10 11:53:45;;;;;;;9.80;9.50;;;16.60;99.90;;;;;;6201297;23;20198;-82
2023/04/10 11:56:24;;;;;;;9.80;9.50;;;17.10;99.90;;;;;;6201168;23;20234;-82
2023/04/10 11:58:53;;;;;;;9.68;9.38;;;17.30;99.90;;;;;;6201606;23;20191;-82
2023/04/10 12:01:22;;;;;;;9.77;9.48;;;17.10;99.90;;;;;;6199928;23;20231;-83
2023/04/10 12:03:52;;;;;;;9.90;9.60;;;16.80;99.90;;;;;;6199774;23;20208;-83
2023/04/10 12:06:21;;;;;;;9.90;9.60;;;16.70;99.90;;;;;;6200339;23;20230;-81
2023/04/10 12:08:50;;;;;;;10.10;9.80;;;16.90;99.90;;;;;;6200238;23;20226;-83
2023/04/10 12:11:28;;;;;;;10.15;9.85;;;17.00;99.90;;;;;;6199536;23;20204;-83
2023/04/10 12:13:58;;;;;;;10.18;9.88;;;17.10;99.90;;;;;;6200449;23;20248;-83
2023/04/10 12:16:28;;;;;;;10.02;9.73;;;17.40;99.90;;;;;;6199989;23;20206;-83
2023/04/10 12:18:57;;;;;;;10.25;9.95;;;17.70;99.90;;;;;;6199026;23;20214;-83
2023/04/10 12:21:26;;;;;;;10.10;9.80;;;17.40;99.90;;;;;;6200112;23;20279;-83
2023/04/10 12:23:56;;;;;;;10.30;10.00;;;17.70;99.90;;;;;;6199251;23;20223;-83
2023/04/10 12:26:28;;;;;;;10.20;9.90;;;18.00;99.90;;;;;;6200106;23;20199;-83
2023/04/10 12:28:58;;;;;;;10.18;9.88;;;18.20;99.90;;;;;;6203186;23;20196;-83
2023/04/10 12:31:33;;;;;;;10.23;9.93;;;18.30;99.90;;;;;;6210219;22;20243;-83
2023/04/10 12:34:04;;;;;;;10.15;9.85;;;18.20;99.90;;;;;;6202537;23;20226;-83
2023/04/10 12:36:33;;;;;;;10.07;9.77;;;18.30;99.90;;;;;;6209672;23;20199;-82
2023/04/10 12:39:05;;;;;;;10.20;9.90;;;18.10;99.90;;;;;;6203546;23;21078;-83
2023/04/10 12:41:41;;;;;;;10.25;9.95;;;17.60;99.90;;;;;;6176643;23;20246;-84
2023/04/10 12:44:11;;;;;;;10.02;9.73;;;17.60;99.90;;;;;;6202264;23;21015;-84
2023/04/10 12:46:39;;;;;;;10.20;9.90;;;17.70;99.90;;;;;;6203582;23;20294;-83
2023/04/10 12:51:56;;;;;;;10.02;9.73;;;18.30;99.90;;;;;;6201349;23;20309;-82
2023/04/10 12:54:33;;;;;;;10.05;9.75;;;18.30;99.90;;;;;;6203693;23;20215;-82
2023/04/10 12:57:13;;;;;;;10.10;9.80;;;18.10;99.90;;;;;;6200492;23;20210;-82
2023/04/10 12:59:43;;;;;;;10.10;9.80;;;17.80;99.90;;;;;;6200292;23;20326;-82
2023/04/10 13:02:11;;;;;;;10.30;10.00;;;17.60;99.90;;;;;;6200579;23;20323;-82
2023/04/10 13:04:40;;;;;;;10.30;10.00;;;18.10;99.90;;;;;;6202022;23;20251;-82
2023/04/10 13:07:09;;;;;;;10.27;9.98;;;18.50;99.90;;;;;;6207820;23;20212;-84
2023/04/10 13:09:39;;;;;;;10.27;9.98;;;18.70;99.90;;;;;;6203138;23;20251;-83
2023/04/10 13:12:37;;;;;;;10.30;10.00;;;18.60;99.90;;;;;;6202719;23;20214;-83
2023/04/10 13:15:06;;;;;;;10.50;10.20;;;18.50;99.90;;;;;;6201500;23;20202;-83
2023/04/10 13:17:33;;;;;;;10.27;9.98;;;18.30;99.90;;;;;;6203115;23;20200;-83
2023/04/10 13:20:03;;;;;;;10.23;9.93;;;18.20;99.90;;;;;;6203050;23;20191;-82
2023/04/10 13:22:33;;;;;;;10.20;9.90;;;17.90;99.90;;;;;;6203391;23;20211;-82
2023/04/10 13:25:02;;;;;;;10.35;10.05;;;17.60;99.90;;;;;;6208057;23;20227;-81
2023/04/10 13:27:40;;;;;;;10.30;10.00;;;17.30;99.90;;;;;;6217633;23;20254;-82
2023/04/10 13:30:10;;;;;;;10.15;9.85;;;17.30;99.90;;;;;;6207480;23;20203;-82
2023/04/10 13:32:39;;;;;;;10.23;9.93;;;17.60;99.90;;;;;;6203386;23;20243;-82
2023/04/10 13:35:08;;;;;;;10.00;9.70;;;17.80;99.90;;;;;;6199883;23;20266;-82
2023/04/10 13:37:38;;;;;;;9.93;9.63;;;17.80;99.90;;;;;;6204438;23;20214;-82
2023/04/10 13:40:07;;;;;;;9.95;9.65;;;18.00;99.90;;;;;;6213131;23;20195;-81
2023/04/10 13:42:39;;;;;;;10.10;9.80;;;18.20;99.90;;;;;;6205082;23;20207;-82
2023/04/10 13:45:07;;;;;;;9.80;9.50;;;18.00;99.90;;;;;;6204270;23;20191;-83
2023/04/10 13:47:36;;;;;;;9.80;9.50;;;17.90;99.90;;;;;;6201682;23;20206;-83
2023/04/10 13:50:05;;;;;;;9.93;9.63;;;18.00;99.90;;;;;;6203525;23;20187;-82
2023/04/10 13:52:36;;;;;;;9.95;9.65;;;17.60;99.90;;;;;;6202208;23;20207;-82
2023/04/10 13:55:05;;;;;;;9.90;9.60;;;17.60;99.90;;;;;;6202404;23;20211;-82
2023/04/10 13:57:35;;;;;;;10.20;9.90;;;17.70;99.90;;;;;;6203420;23;20203;-83
2023/04/10 14:00:13;;;;;;;10.38;10.07;;;17.80;99.90;;;;;;6203166;23;20230;-82
2023/04/10 14:02:43;;;;;;;10.00;9.70;;;17.90;99.90;;;;;;6209047;23;20218;-82
2023/04/10 14:05:12;;;;;;;10.10;9.80;;;17.70;99.90;;;;;;6208614;23;20195;-82
2023/04/10 14:07:41;;;;;;;10.30;10.00;;;17.60;99.90;;;;;;6205727;23;20203;-81
2023/04/10 14:10:11;;;;;;;10.48;10.18;;;17.90;99.90;;;;;;6203754;23;20200;-83
2023/04/10 14:12:39;;;;;;;10.60;10.30;;;18.10;99.90;;;;;;6200808;23;20227;-82
2023/04/10 14:15:11;;;;;;;10.48;10.18;;;18.30;99.90;;;;;;6199819;23;20234;-82
2023/04/10 14:17:40;;;;;;;10.43;10.13;;;18.20;99.90;;;;;;6199529;23;20191;-83
2023/04/10 14:20:10;;;;;;;10.35;10.05;;;18.00;99.90;;;;;;6205811;22;20184;-82
2023/04/10 14:22:38;;;;;;;10.70;10.40;;;18.10;99.90;;;;;;6203941;22;20190;-83
2023/04/10 14:25:10;;;;;;;10.75;10.45;;;18.50;99.90;;;;;;6202401;23;20493;-82
2023/04/10 14:27:37;;;;;;;10.50;10.20;;;18.60;99.90;;;;;;6202519;23;20230;-83
2023/04/10 14:30:08;;;;;;;10.60;10.30;;;18.80;99.90;;;;;;6203106;23;20210;-82
2023/04/10 14:32:36;;;;;;;10.48;10.18;;;18.90;99.90;;;;;;6202264;23;20213;-82
2023/04/10 14:35:05;;;;;;;10.95;10.65;;;18.80;99.90;;;;;;6203736;23;20196;-82
2023/04/10 14:37:34;;;;;;;10.80;10.50;;;18.10;99.90;;;;;;6204814;23;20183;-83
2023/04/10 14:40:04;;;;;;;10.48;10.18;;;17.70;99.90;;;;;;6204999;23;20195;-83
2023/04/10 14:42:34;;;;;;;10.40;10.10;;;17.50;99.90;;;;;;6204901;23;20251;-82
2023/04/10 14:45:05;;;;;;;10.48;10.18;;;17.30;99.90;;;;;;6204666;23;20270;-82
2023/04/10 14:47:35;;;;;;;10.55;10.25;;;17.40;99.90;;;;;;6205968;23;20196;-83
2023/04/10 14:50:03;;;;;;;10.55;10.25;;;17.20;99.90;;;;;;6205861;23;20197;-82
2023/04/10 14:52:31;;;;;;;10.50;10.20;;;17.10;99.90;;;;;;6206030;23;20227;-83
2023/04/10 14:55:01;;;;;;;10.60;10.30;;;17.30;99.90;;;;;;6207267;23;20247;-82
2023/04/10 14:57:30;;;;;;;10.50;10.20;;;17.40;99.90;;;;;;6206240;23;20196;-83
2023/04/10 15:00:00;;;;;;;10.50;10.20;;;17.60;99.90;;;;;;6205793;23;20199;-84
2023/04/10 15:02:30;;;;;;;10.63;10.32;;;17.80;99.90;;;;;;6205980;23;20195;-83
2023/04/10 15:05:01;;;;;;;10.60;10.30;;;18.00;99.90;;;;;;6206719;23;20276;-82
2023/04/10 15:07:29;;;;;;;10.77;10.48;;;17.60;99.90;;;;;;6207467;23;20199;-83
2023/04/10 15:09:58;;;;;;;10.93;10.63;;;17.60;99.90;;;;;;6205783;23;20196;-82
2023/04/10 15:12:27;;;;;;;10.90;10.60;;;17.50;99.90;;;;;;6206177;23;20211;-83
2023/04/10 15:14:57;;;;;;;10.60;10.30;;;17.40;99.90;;;;;;6206175;23;20199;-82
2023/04/10 15:17:26;;;;;;;10.57;10.27;;;17.50;99.90;;;;;;6216179;22;20219;-82
2023/04/10 15:19:55;;;;;;;10.45;10.15;;;17.70;99.90;;;;;;6217921;23;20222;-82
2023/04/10 15:22:35;;;;;;;10.70;10.40;;;17.60;99.90;;;;;;6211037;23;20226;-82
2023/04/10 15:25:03;;;;;;;10.75;10.45;;;17.50;99.90;;;;;;6219676;23;20183;-82
2023/04/10 15:27:33;;;;;;;10.90;10.60;;;17.70;99.90;;;;;;6219612;22;20207;-83
2023/04/10 15:30:03;;;;;;;10.70;10.40;;;17.70;99.90;;;;;;6220193;22;20200;-82
2023/04/10 15:32:32;;;;;;;10.95;10.65;;;17.60;99.90;;;;;;6220237;22;20196;-81
2023/04/10 15:35:01;;;;;;;10.68;10.38;;;17.50;99.90;;;;;;6220175;22;20188;-82
2023/04/10 15:37:39;;;;;;;10.75;10.45;;;17.50;99.90;;;;;;6220397;22;20232;-82
2023/04/10 15:40:09;;;;;;;10.65;10.35;;;17.70;99.90;;;;;;6220307;22;20188;-82
2023/04/10 15:42:38;;;;;;;10.80;10.50;;;17.30;99.90;;;;;;6220108;22;20168;-83
2023/04/10 15:45:08;;;;;;;10.68;10.38;;;17.00;99.90;;;;;;6219860;22;20188;-82
2023/04/10 15:47:38;;;;;;;10.65;10.35;;;16.70;99.90;;;;;;6219686;22;20180;-82
2023/04/10 15:50:09;;;;;;;10.68;10.38;;;16.70;99.90;;;;;;6219595;22;20187;-83
2023/04/10 15:52:45;;;;;;;10.55;10.25;;;16.60;99.90;;;;;;6216398;22;20208;-84
2023/04/10 15:55:16;;;;;;;10.75;10.45;;;16.50;99.90;;;;;;6219644;22;20190;-83
2023/04/10 15:57:47;;;;;;;10.55;10.25;;;16.40;99.90;;;;;;6219563;22;20179;-84
2023/04/10 16:00:16;;;;;;;10.80;10.50;;;16.30;99.90;;;;;;6216514;22;20255;-83
2023/04/10 16:02:44;;;;;;;10.70;10.40;;;16.40;99.90;;;;;;6209875;23;20192;-83
2023/04/10 16:05:13;;;;;;;10.75;10.45;;;16.20;99.90;;;;;;6207225;23;20203;-83
2023/04/10 16:07:44;;;;;;;10.60;10.30;;;16.10;99.90;;;;;;6204761;23;20207;-84
2023/04/10 16:10:12;;;;;;;10.63;10.32;;;16.00;99.90;;;;;;6209206;22;20188;-82
2023/04/10 16:12:42;;;;;;;10.40;10.10;;;16.10;99.90;;;;;;6205206;23;20199;-82
2023/04/10 16:15:11;;;;;;;10.48;10.18;;;16.00;99.90;;;;;;6203255;23;20192;-82
2023/04/10 16:17:40;;;;;;;10.80;10.50;;;16.00;99.90;;;;;;6203912;23;20227;-83
2023/04/10 16:20:11;;;;;;;10.48;10.18;;;15.90;99.90;;;;;;6203973;23;20231;-83
2023/04/10 16:22:40;;;;;;;10.50;10.20;;;15.80;99.90;;;;;;6205659;23;20200;-84
2023/04/10 16:25:21;;;;;;;10.30;10.00;;;15.70;99.90;;;;;;6204470;23;20199;-83
2023/04/10 16:27:48;;;;;;;10.32;10.02;;;15.50;99.90;;;;;;6202835;23;20214;-83
2023/04/10 16:30:17;;;;;;;10.40;10.10;;;15.50;99.90;;;;;;6201226;23;20215;-83
2023/04/10 16:32:46;;;;;;;10.05;9.75;;;15.40;99.90;;;;;;6203641;23;20215;-83
2023/04/10 16:35:16;;;;;;;10.30;10.00;;;15.40;99.90;;;;;;6202746;23;20314;-84
2023/04/10 16:37:46;;;;;;;10.18;9.88;;;15.30;99.90;;;;;;6201188;23;20187;-84
2023/04/10 16:40:26;;;;;;;10.00;9.70;;;15.30;99.90;;;;;;6201302;23;20188;-83
2023/04/10 16:42:54;;;;;;;10.00;9.70;;;15.30;99.90;;;;;;6202496;23;20218;-83
2023/04/10 16:45:22;;;;;;;9.90;9.60;;;15.30;99.90;;;;;;6203657;23;20282;-84
2023/04/10 16:47:52;;;;;;;10.07;9.77;;;15.30;99.90;;;;;;6205652;23;20215;-84
2023/04/10 16:50:22;;;;;;;10.20;9.90;;;15.20;99.90;;;;;;6203743;23;20192;-84
2023/04/10 18:04:07;;;;;;;10.40;10.10;;;13.50;99.90;;;;;;6236789;23;20186;-85
2023/04/10 18:06:35;;;;;;;10.27;9.97;;;13.40;99.90;;;;;;6239154;22;20195;-87
2023/04/10 18:09:04;;;;;;;10.30;10.00;;;13.30;99.90;;;;;;6239208;22;20293;-87
2023/04/10 18:15:48;;;;;;;;;;;;;;;;;;;;;
2023/04/10 18:25:02;;;;;;;9.93;9.63;;;13.10;99.90;;;;;;6238710;22;20596;-84
2023/04/10 18:27:47;;;;;;;10.40;10.10;;;12.90;99.90;;;;;;6190995;22;20225;-84
2023/04/10 18:30:20;;;;;;;10.17;9.87;;;12.90;99.90;;;;;;6240196;23;20205;-83
2023/04/10 18:35:47;;;;;;;10.07;9.77;;;12.80;99.90;;;;;;6237587;23;20198;-83
2023/04/10 18:38:22;;;;;;;10.17;9.87;;;12.80;99.90;;;;;;6238835;22;20288;-82
2023/04/10 18:41:03;;;;;;;10.10;9.80;;;12.80;99.90;;;;;;6238321;22;20256;-83
2023/04/10 18:43:38;;;;;;;9.90;9.60;;;12.70;99.90;;;;;;6238361;23;20704;-83
2023/04/10 18:49:15;;;;;;;10.20;9.90;;;12.60;99.90;;;;;;6256392;22;20221;-82
2023/04/10 18:57:44;;;;;;;10.23;9.93;;;12.50;99.90;;;;;;6238194;23;20242;-85
2023/04/10 19:00:30;;;;;;;9.87;9.57;;;12.50;99.90;;;;;;6239545;23;20199;-82
2023/04/10 19:08:43;;;;;;;10.10;9.80;;;12.40;99.90;;;;;;6233530;23;20190;-84
2023/04/10 19:11:14;;;;;;;9.90;9.60;;;12.30;99.90;;;;;;6234893;22;20218;-83
2023/04/10 19:13:41;;;;;;;9.77;9.47;;;12.30;99.90;;;;;;6233496;23;20250;-85
2023/04/10 19:16:19;;;;;;;9.70;9.40;;;12.20;99.90;;;;;;6238592;23;20218;-83
2023/04/10 19:18:50;;;;;;;9.80;9.50;;;12.20;99.90;;;;;;6245231;23;20190;-83
2023/04/10 19:21:21;;;;;;;9.90;9.60;;;12.20;99.90;;;;;;6240324;22;20207;-84
2023/04/10 19:26:45;;;;;;;9.90;9.60;;;12.10;99.90;;;;;;6235874;23;20202;-84
2023/04/10 19:29:15;;;;;;;9.90;9.60;;;12.00;99.90;;;;;;6233399;23;20194;-83
2023/04/10 19:31:44;;;;;;;10.37;10.07;;;12.00;99.90;;;;;;6233048;22;20230;-83
2023/04/10 19:41:47;;;;;;;9.90;9.60;;;11.90;99.90;;;;;;6245265;22;20190;-84
2023/04/10 19:58:17;;;;;;;9.97;9.67;;;11.70;99.90;;;;;;6063121;23;20207;-87
2023/04/10 20:03:53;;;;;;;9.90;9.60;;;11.50;99.90;;;;;;6113146;23;20216;-85
2023/04/10 20:19:57;;;;;;;10.17;9.87;;;11.40;99.90;;;;;;6229515;23;20209;-85
2023/04/10 20:22:45;;;;;;;10.27;9.97;;;11.40;99.90;;;;;;6230056;22;20214;-87
2023/04/10 20:25:23;;;;;;;10.17;9.87;;;11.40;99.90;;;;;;6230294;23;20195;-86
2023/04/10 20:28:09;;;;;;;10.20;9.90;;;11.30;99.90;;;;;;6231981;23;20187;-85
2023/04/10 20:30:46;;;;;;;10.00;9.70;;;11.30;99.90;;;;;;6234067;23;20190;-86
2023/04/10 20:39:36;;;;;;;10.00;9.70;;;11.20;99.90;;;;;;6230974;23;20191;-86
2023/04/10 20:42:12;;;;;;;10.20;9.90;;;11.20;99.90;;;;;;6229582;22;20198;-85
2023/04/10 21:03:37;;;;;;;10.50;10.20;;;11.00;99.90;;;;;;6224770;22;20813;-85
2023/04/10 21:18:58;;;;;;;10.20;9.90;;;11.10;99.90;;;;;;4896570;27;8662300;-83
2023/04/10 21:27:13;;;;;;;10.53;10.23;;;10.90;99.90;;;;;;5155886;27;20254;-83
2023/04/10 21:33:02;;;;;;;10.23;9.93;;;10.90;99.90;;;;;;5153851;27;20232;-83
2023/04/10 21:36:26;;;;;;;10.27;9.97;;;10.80;99.90;;;;;;5152172;27;20239;-83
2023/04/10 21:42:09;;;;;;;10.30;10.00;;;10.80;99.90;;;;;;5142512;27;20224;-84
2023/04/10 21:56:51;;;;;;;10.30;10.00;;;10.70;99.90;;;;;;5145606;27;20325;-83
2023/04/10 21:59:44;;;;;;;10.43;10.13;;;10.70;99.90;;;;;;5145318;27;20224;-83
2023/04/10 22:02:23;;;;;;;9.97;9.67;;;10.60;99.90;;;;;;5144281;27;20285;-83
2023/04/10 22:07:58;;;;;;;10.17;9.87;;;10.60;99.90;;;;;;5141203;27;20212;-83
2023/04/10 22:20:36;;;;;;;10.30;10.00;;;10.60;99.90;;;;;;5159097;27;20242;-83
2023/04/10 22:26:00;;;;;;;10.33;10.03;;;10.60;99.90;;;;;;5163225;27;20295;-83
2023/04/10 22:31:19;;;;;;;10.13;9.83;;;10.60;99.90;;;;;;5137650;27;20229;-83
2023/04/10 22:36:50;;;;;;;10.17;9.87;;;10.50;99.90;;;;;;5141068;28;20216;-83
2023/04/10 22:42:07;;;;;;;10.10;9.80;;;10.50;99.90;;;;;;5130260;27;20220;-83
2023/04/10 22:47:23;;;;;;;10.10;9.80;;;10.50;99.90;;;;;;5130131;28;20235;-83
2023/04/10 22:49:58;;;;;;;10.07;9.77;;;10.50;99.90;;;;;;5129018;28;20251;-83
2023/04/10 22:52:28;;;;;;;10.20;9.90;;;10.50;99.90;;;;;;5127977;22;20253;-81
2023/04/10 22:54:58;;;;;;;10.20;9.90;;;10.50;99.90;;;;;;5085905;28;20262;-83
2023/04/10 22:57:27;;;;;;;10.23;9.93;;;10.50;99.90;;;;;;5084467;28;20245;-81
2023/04/10 22:59:56;;;;;;;10.00;9.70;;;10.50;99.90;;;;;;5086471;28;20315;-81
2023/04/10 23:02:26;;;;;;;10.20;9.90;;;10.50;99.90;;;;;;5080279;28;20273;-81
2023/04/10 23:04:56;;;;;;;9.93;9.63;;;10.50;99.90;;;;;;5065354;28;20251;-82
2023/04/10 23:07:26;;;;;;;10.00;9.70;;;10.50;99.90;;;;;;5064105;28;20226;-81
2023/04/10 23:09:56;;;;;;;10.20;9.90;;;10.50;99.90;;;;;;5064774;28;20227;-82
2023/04/10 23:12:26;;;;;;;10.27;9.97;;;10.50;99.90;;;;;;5064507;28;20265;-82